Henderson, Nevada Weather observations

Data are for observation ending at time listed.
 Day   Time    Ave.   Ave.  Ave.  Vector   Max.   Stn.    Total    Solar   Ave.  
  of    of     Air    Rel.  Wind   Wind    Wind   Baro.  Precip.   Rad.    Soil  
Year   Day     Temp.  Hum.  Speed  Dir.    Gust   Pres.                    Temp. 
2014   (PST)    F      %     mph   deg.    mph     mb.     in.     W/m2     F   
------------------------------------------------------------------------------
 354    9:20   48.2    73    1.4   102      2.5   944.2    0.00     284    45.8
 354    9:30   49.5    72    0.8    17      2.8   944.5    0.00     296    47.6
 354    9:40   50.1    71    1.7     2      4.3   944.5    0.00     365    49.7
 354    9:50   48.9    75    2.8   325      4.5   944.6    0.00     377    51.3
 354   10:00   48.3    74    2.0   315      5.1   944.5    0.00     399    52.7
 354   10:10   49.3    71    1.0     8      2.8   944.1    0.00     426    54.2
 354   10:20   50.7    67    1.2    25      3.1   944.0    0.00     395    55.5
 354   10:30   51.3    66    0.9    22      2.7   943.8    0.00     444    56.4
 354   10:40   52.1    64    1.0   341      3.1   943.7    0.00     429    57.5
 354   10:50   52.2    63    1.6   357      3.3   943.5    0.00     458    57.3
 354   11:00   51.4    64    1.7     4      3.8   943.4    0.00     277    56.6
 354   11:10   51.1    65    2.4   322      4.8   943.2    0.00     478    55.2
 354   11:20   51.5    64    2.7   340      5.8   943.1    0.00     552    54.2
 354   11:30   51.7    63    2.6   320      6.4   943.1    0.00     429    53.9
 354   11:40   52.1    62    2.4   336      4.9   942.8    0.00     550    53.8
 354   11:50   52.1    63    2.2   306      4.4   942.7    0.00     551    53.8
 354   12:00   52.8    61    2.3   346      5.2   942.7    0.00     552    53.6
 354   12:10   52.9    61    2.6   324      5.9   942.7    0.00     570    53.6
 354   12:20   53.0    60    2.6   321      6.6   942.4    0.00     524    53.7
 354   12:30   53.3    59    1.4    10      5.0   942.2    0.00     553    53.9
 354   12:40   54.2    57    1.6   356      5.1   942.0    0.00     556    54.2
 354   12:50   55.0    55    1.4   355      4.4   941.9    0.00     559    54.8
 354   13:00   54.4    56    1.9   316      4.7   941.8    0.00     442    55.3
 354   13:10   54.3    56    1.7    83      3.9   941.5    0.00     431    55.2
 354   13:20   54.5    56    0.9   359      3.1   941.6    0.00     280    55.0
 354   13:30   54.8    54    1.5    57      3.6   941.5    0.00     319    54.9
 354   13:40   55.0    54    1.9   354      5.3   941.5    0.00     408    55.1
 354   13:50   55.4    54    1.3   310      4.0   941.4    0.00     306    55.5
 354   14:00   54.9    54    1.9   333      3.1   941.2    0.00     167    55.5
 354   14:10   54.5    55    2.0   316      3.9   940.9    0.00     276    55.3
 354   14:20   55.0    54    0.9   267      3.0   940.4    0.00     214    55.3
 354   14:30   54.4    56    1.2   298      3.3   940.4    0.00     176    55.1
 354   14:40   54.8    55    0.8    58      2.7   940.6    0.00     170    54.7
 354   14:50   54.6    56    2.3   338      5.1   940.8    0.00     157    54.1
 354   15:00   54.6    56    2.7   340      7.1   940.9    0.00     248    53.7
 354   15:10   54.8    56    2.8   334      6.9   940.9    0.00     239    53.6
 354   15:20   54.9    56    3.0   339      6.3   941.1    0.00     206    53.6
 354   15:30   54.8    55    2.8   357      7.0   941.3    0.00     169    53.6
 354   15:40   54.5    55    2.4   352      6.6   941.4    0.00     127    53.4
 354   15:50   54.2    55    2.8   336      6.1   941.6    0.00      77    53.2
 354   16:00   53.8    55    3.3   347      6.5   942.1    0.00      41    52.8
 354   16:10   53.3    56    2.4     5      5.1   942.1    0.00      24    52.4
 354   16:20   52.9    56    2.0    14      4.8   942.0    0.00       9    52.0
 354   16:30   52.6    56    0.6    33      3.2   941.7    0.00       7    51.6
 354   16:40   52.2    57    0.7   288      1.8   941.5    0.00       3    51.2
 354   16:50   52.0    58    1.0   266      1.8   941.5    0.00       0    50.8
 354   17:00   51.7    60    1.3   288      2.2   941.8    0.00       0    50.4
 354   17:10   51.3    61    0.9   284      1.8   942.0    0.00       0    49.9
 354   17:20   50.8    62    0.0     0      0.0   942.2    0.00       0    49.2
 354   17:30   49.9    64    0.1   241      0.9   942.3    0.00       0    48.3
 354   17:40   49.3    65    0.2   235      1.1   942.3    0.00       0    47.4
 354   17:50   48.7    67    0.5   219      1.7   942.4    0.00       0    46.6
 354   18:00   48.7    68    1.1   227      1.8   942.4    0.00       0    45.9
 354   18:10   48.3    68    1.2   246      1.9   942.6    0.00       0    45.4
 354   18:20   48.3    68    1.1   251      1.6   942.5    0.00       0    45.0
 354   18:30   47.9    68    0.6   252      1.8   942.4    0.00       0    44.5
 354   18:40   47.8    69    1.3   217      2.9   942.2    0.00       0    44.2
 354   18:50   48.0    68    1.1   214      2.4   942.2    0.00       0    44.2
 354   19:00   47.2    70    1.6   245      2.5   942.6    0.00       0    44.0
 354   19:10   47.7    68    1.5   199      2.5   942.3    0.00       0    43.8
 354   19:20   47.9    67    0.5   188      2.2   942.4    0.00       0    43.7
 354   19:30   47.7    68    1.3   170      3.1   942.3    0.00       0    43.4
 354   19:40   47.5    69    0.8   170      1.8   942.4    0.00       0    43.2
 354   19:50   46.8    71    0.0   135      0.1   942.6    0.00       0    42.9
 354   20:00   45.9    73    0.4   136      1.8   942.7    0.00       0    42.5
 354   20:10   45.8    74    2.1   197      4.9   942.8    0.00       0    42.3
 354   20:20   46.7    72    2.6   191      4.8   942.7    0.00       0    42.5
 354   20:30   47.0    71    2.0   188      3.3   942.6    0.00       0    42.7
 354   20:40   46.8    71    2.4   194      4.7   942.6    0.00       0    42.6
 354   20:50   46.5    72    1.1   206      1.8   942.9    0.00       0    42.6
 354   21:00   46.3    72    1.6   200      3.0   942.9    0.00       0    42.6
 354   21:10   46.8    71    1.6   191      2.7   942.9    0.00       0    42.8
 354   21:20   46.5    72    1.3   224      2.6   943.1    0.00       0    42.7
 354   21:30   46.1    73    1.9   194      3.2   943.2    0.00       0    42.5
 354   21:40   46.8    72    2.9   193      4.3   942.9    0.00       0    42.6
 354   21:50   46.6    72    1.3   219      2.1   943.0    0.00       0    42.7
 354   22:00   45.9    74    1.4   193      2.3   943.1    0.00       0    42.4
 354   22:10   45.6    75    0.8   188      2.7   943.1    0.00       0    42.1
 354   22:20   46.1    74    3.2   184      5.2   943.0    0.00       0    42.0
 354   22:30   46.5    72    3.0   179      5.0   943.1    0.00       0    42.3
 354   22:40   46.5    73    1.8   183      4.0   943.2    0.00       0    42.5
 354   22:50   46.1    74    2.1   187      4.6   943.2    0.00       0    42.3
 354   23:00   45.8    74    1.6   199      4.9   943.0    0.00       0    42.0
 354   23:10   45.8    75    0.7   163      3.3   943.1    0.00       0    41.9
 354   23:20   45.9    74    1.0   162      2.8   942.9    0.00       0    41.8
 354   23:30   45.5    74    2.3   188      4.2   942.9    0.00       0    41.6
 354   23:40   45.0    75    2.5   193      4.7   942.9    0.00       0    41.4
 354   23:50   44.6    76    1.7   227      3.1   942.9    0.00       0    41.3
 355    0:00   43.7    79    1.6   267      2.7   942.9    0.00       0    41.0
 355    0:10   44.1    78    0.6   262      2.1   943.0    0.00       0    40.7
 355    0:20   43.7    79    0.2   126      1.1   943.0    0.00       0    40.3
 355    0:30   43.5    80    0.5   197      2.6   942.8    0.00       0    40.0
 355    0:40   43.4    80    1.3   181      2.4   942.9    0.00       0    39.7
 355    0:50   43.3    80    0.8   193      1.6   943.0    0.00       0    39.5
 355    1:00   42.9    81    0.8   168      2.4   943.0    0.00       0    39.3
 355    1:10   42.8    81    0.3   164      1.3   942.9    0.00       0    39.1
 355    1:20   42.6    81    1.7   197      3.4   942.9    0.00       0    39.0
 355    1:30   42.7    81    2.5   197      3.5   942.9    0.00       0    38.9
 355    1:40   42.4    82    1.6   211      2.7   943.0    0.00       0    38.8
 355    1:50   42.2    82    1.1   192      2.3   943.1    0.00       0    38.7
 355    2:00   42.3    82    0.6   111      1.8   943.0    0.00       0    38.6
 355    2:10   42.5    82    1.3   130      3.0   942.9    0.00       0    38.8
 355    2:20   42.9    81    1.5   123      2.9   942.9    0.00       0    39.0
 355    2:30   43.3    80    1.4   126      3.2   942.8    0.00       0    39.3
 355    2:40   43.1    80    0.8   182      2.7   942.6    0.00       0    39.3
 355    2:50   42.6    81    0.9   191      1.9   942.4    0.00       0    39.1
 355    3:00   42.5    82    1.0   201      2.7   942.3    0.00       0    38.9
 355    3:10   42.3    83    1.7   204      3.1   942.2    0.00       0    38.7
 355    3:20   41.9    83    1.8   209      2.9   942.3    0.00       0    38.6
 355    3:30   41.4    84    1.9   214      2.8   942.3    0.00       0    38.4
 355    3:40   41.7    85    1.6   199      2.5   942.1    0.00       0    38.3
 355    3:50   42.1    84    1.0   190      2.1   942.2    0.00       0    38.3
 355    4:00   41.4    84    0.9   233      1.8   942.3    0.00       0    38.2
 355    4:10   41.2    85    0.2    99      1.1   942.2    0.00       0    38.1
 355    4:20   40.7    86    0.4   183      1.7   942.2    0.00       0    38.0
 355    4:30   40.5    87    0.5   218      1.5   942.3    0.00       0    37.9
 355    4:40   40.7    86    0.9   209      3.2   942.1    0.00       0    37.9
 355    4:50   40.6    87    0.2   163      1.4   942.2    0.00       0    38.0
 355    5:00   40.6    87    1.3   199      3.1   942.1    0.00       0    37.9
 355    5:10   40.8    86    1.7   224      3.0   942.0    0.00       0    37.9
 355    5:20   40.8    86    1.1   220      2.1   942.1    0.00       0    38.0
 355    5:30   41.4    86    1.7   206      3.5   942.1    0.00       0    38.0
 355    5:40   42.0    84    1.3   180      3.4   942.1    0.00       0    38.2
 355    5:50   42.0    84    0.3   199      3.7   942.2    0.00       0    38.4
 355    6:00   41.7    85    1.8   208      4.4   942.3    0.00       0    38.4
 355    6:10   41.4    85    1.5   209      3.1   942.3    0.00       0    38.4
 355    6:20   41.0    86    0.7   121      1.7   942.3    0.00       0    38.4
 355    6:30   41.3    86    0.5   103      1.9   942.1    0.00       0    38.4
 355    6:40   41.3    86    0.5   116      2.6   942.1    0.00       0    38.4
 355    6:50   41.2    86    0.5    95      1.2   942.4    0.00       1    38.2
 355    7:00   40.7    86    0.5   194      1.6   942.5    0.00       7    38.1
 355    7:10   41.0    86    0.9   174      2.4   942.3    0.00      16    38.1
 355    7:20   41.5    86    0.8   171      3.1   942.4    0.00      28    38.2
 355    7:30   42.4    84    1.7   165      4.0   942.2    0.00      43    38.6
 355    7:40   43.0    83    2.5   192      4.7   942.2    0.00      61    39.2
 355    7:50   43.6    81    1.2   197      3.9   942.3    0.00      76    39.8
 355    8:00   44.2    80    0.5   246      1.5   942.8    0.00      90    40.5
 355    8:10   44.7    79    1.1   268      2.3   943.1    0.00     121    41.2
 355    8:20   45.6    78    0.8   231      2.0   943.0    0.00     139    42.2
 355    8:30   46.4    75    2.0   108      3.9   942.9    0.00     146    43.2
 355    8:40   46.7    74    2.8   111      4.9   943.0    0.00     184    44.2
 355    8:50   46.7    72    3.6   107      5.8   943.0    0.00     199    45.3
 355    9:00   47.0    72    1.4   103      3.4   943.2    0.00     218    46.2
 355    9:10   47.4    71    1.8   109      3.4   943.0    0.00     230    47.1

Return to Henderson, Nevada graphs page.


Western Regional Climate Center,wrcc@dri.edu